createdAt,value
2022-11-02T00:01:39.475Z,101277.19
2022-11-02T00:04:06.145Z,101271.97
2022-11-02T00:06:33.451Z,101270.94
2022-11-02T00:09:00.010Z,101275.97
2022-11-02T00:11:27.032Z,101272.13
2022-11-02T00:13:53.663Z,101262.03
2022-11-02T00:16:22.572Z,101266.22
2022-11-02T00:18:53.447Z,101271.34
2022-11-02T00:21:21.625Z,101265.97
2022-11-02T00:23:49.196Z,101263.19
2022-11-02T00:26:16.056Z,101268.56
2022-11-02T00:28:43.251Z,101259.75
2022-11-02T00:31:09.880Z,101264.31
2022-11-02T00:33:36.515Z,101268.91
2022-11-02T00:36:03.209Z,101260.50
2022-11-02T00:38:32.035Z,101262.72
2022-11-02T00:40:59.134Z,101254.56
2022-11-02T00:43:25.883Z,101259.69
2022-11-02T00:45:52.578Z,101251.78
2022-11-02T00:48:19.181Z,101253.72
2022-11-02T00:50:46.854Z,101252.22
2022-11-02T00:53:13.583Z,101262.72
2022-11-02T00:55:48.738Z,101256.78
2022-11-02T00:58:15.567Z,101253.59
2022-11-02T01:00:42.265Z,101258.16
2022-11-02T01:03:09.459Z,101249.84
2022-11-02T01:05:37.563Z,101246.09
2022-11-02T01:08:05.057Z,101258.38
2022-11-02T01:10:31.872Z,101251.97
2022-11-02T01:13:01.052Z,101252.91
2022-11-02T01:15:28.258Z,101253.16
2022-11-02T01:17:54.889Z,101249.75
2022-11-02T01:20:21.759Z,101249.75
2022-11-02T01:22:48.354Z,101254.91
2022-11-02T01:25:15.117Z,101251.41
2022-11-02T01:27:41.641Z,101246.59
2022-11-02T01:30:08.660Z,101249.44
2022-11-02T01:32:36.254Z,101237.41
2022-11-02T01:35:03.008Z,101244.97
2022-11-02T01:37:29.719Z,101243.91
2022-11-02T01:39:56.350Z,101246.59
2022-11-02T01:42:25.410Z,101241.22
2022-11-02T01:44:52.243Z,101242.84
2022-11-02T01:47:21.740Z,101243.34
2022-11-02T01:49:52.790Z,101244.38
2022-11-02T01:52:39.715Z,101255.69
2022-11-02T01:55:10.553Z,101243.81
2022-11-02T01:57:41.632Z,101255.13
2022-11-02T02:00:14.749Z,101252.44
2022-11-02T02:03:07.038Z,101239.91
2022-11-02T02:05:47.444Z,101239.34
2022-11-02T02:08:20.274Z,101241.53
2022-11-02T02:10:46.846Z,101244.78
2022-11-02T02:13:14.577Z,101238.59
2022-11-02T02:15:57.434Z,101229.41
2022-11-02T02:18:29.301Z,101231.63
2022-11-02T02:21:25.583Z,101233.78
2022-11-02T02:24:34.078Z,101222.66
2022-11-02T02:27:21.710Z,101231.28
2022-11-02T02:30:02.306Z,101225.09
2022-11-02T02:32:51.064Z,101225.91
2022-11-02T02:35:28.796Z,101215.16
2022-11-02T02:38:03.380Z,101226.38
2022-11-02T02:40:35.376Z,101233.56
2022-11-02T02:43:08.317Z,101225.75
2022-11-02T02:45:39.590Z,101226.75
2022-11-02T02:48:17.207Z,101220.00
2022-11-02T02:51:06.409Z,101226.91
2022-11-02T02:54:00.043Z,101227.38
2022-11-02T02:56:31.813Z,101223.31
2022-11-02T02:59:00.439Z,101222.84
2022-11-02T03:01:28.382Z,101213.41
2022-11-02T03:03:54.988Z,101210.88
2022-11-02T03:06:33.992Z,101203.97
2022-11-02T03:09:23.043Z,101209.34
2022-11-02T03:11:56.530Z,101209.03
2022-11-02T03:14:42.608Z,101204.13
2022-11-02T03:17:20.416Z,101208.19
2022-11-02T03:20:34.017Z,101204.13
2022-11-02T03:23:14.396Z,101210.00
2022-11-02T03:25:50.457Z,101216.50
2022-11-02T03:28:33.609Z,101207.63
2022-11-02T03:31:12.849Z,101205.44
2022-11-02T03:33:52.212Z,101205.44
2022-11-02T03:36:24.966Z,101208.19
2022-11-02T03:39:00.571Z,101207.72
2022-11-02T03:41:31.727Z,101203.97
2022-11-02T03:44:11.921Z,101204.69
2022-11-02T03:46:41.962Z,101214.88
2022-11-02T03:49:14.918Z,101222.69
2022-11-02T03:51:45.937Z,101229.34
2022-11-02T03:54:49.879Z,101231.13
2022-11-02T03:57:36.002Z,101235.19
2022-11-02T04:00:32.374Z,101230.66
2022-11-02T04:03:07.909Z,101241.78
2022-11-02T04:05:39.668Z,101255.13
2022-11-02T04:08:22.057Z,101258.72
2022-11-02T04:11:13.858Z,101259.53
2022-11-02T04:14:01.768Z,101268.31
2022-11-02T04:16:31.430Z,101269.41
2022-11-02T04:19:18.497Z,101265.41
2022-11-02T04:22:05.353Z,101273.03
2022-11-02T04:24:52.805Z,101280.59
2022-11-02T04:27:21.099Z,101291.91
2022-11-02T04:29:48.452Z,101283.66
2022-11-02T04:32:15.489Z,101295.88
2022-11-02T04:34:42.139Z,101284.13
2022-11-02T04:37:28.640Z,101282.81
2022-11-02T04:39:55.172Z,101287.72
2022-11-02T04:42:22.384Z,101288.28
2022-11-02T04:44:57.023Z,101282.63
2022-11-02T04:47:23.959Z,101295.22
2022-11-02T04:49:51.101Z,101289.28
2022-11-02T04:52:18.840Z,101301.16
2022-11-02T04:54:49.227Z,101309.53
2022-11-02T04:57:15.927Z,101320.38
2022-11-02T04:59:43.409Z,101306.84
2022-11-02T05:02:10.139Z,101308.47
2022-11-02T05:04:37.527Z,101299.41
2022-11-02T05:07:06.466Z,101301.03
2022-11-02T05:09:35.082Z,101302.47
2022-11-02T05:12:05.010Z,101298.47
2022-11-02T05:14:32.844Z,101299.47
2022-11-02T05:17:01.015Z,101301.03
2022-11-02T05:19:28.220Z,101307.16
2022-11-02T05:21:54.740Z,101311.16
2022-11-02T05:24:23.082Z,101312.72
2022-11-02T05:26:53.777Z,101323.53
2022-11-02T05:29:22.911Z,101311.78
2022-11-02T05:31:49.975Z,101319.28
2022-11-02T05:34:16.691Z,101313.75
2022-11-02T05:36:43.523Z,101317.88
2022-11-02T05:39:10.183Z,101320.66
2022-11-02T05:41:36.766Z,101317.59
2022-11-02T05:44:04.245Z,101324.75
2022-11-02T05:46:31.402Z,101317.56
2022-11-02T05:48:58.000Z,101324.78
2022-11-02T05:51:24.788Z,101322.59
2022-11-02T05:53:51.351Z,101318.53
2022-11-02T05:56:23.655Z,101328.22
2022-11-02T06:01:18.943Z,101331.56
2022-11-02T06:03:50.488Z,101340.44
2022-11-02T06:06:19.721Z,101348.81
2022-11-02T06:08:46.274Z,101349.41
2022-11-02T06:11:13.950Z,101362.31
2022-11-02T06:13:41.399Z,101362.56
2022-11-02T06:16:09.893Z,101366.06
2022-11-02T06:18:38.267Z,101357.53
2022-11-02T06:21:05.157Z,101367.19
2022-11-02T06:23:31.783Z,101365.41
2022-11-02T06:26:00.603Z,101361.31
2022-11-02T06:28:28.187Z,101364.97
2022-11-02T06:30:55.924Z,101371.56
2022-11-02T06:33:23.424Z,101375.38
2022-11-02T06:35:54.518Z,101365.44
2022-11-02T06:38:22.106Z,101375.72
2022-11-02T06:40:59.890Z,101381.16
2022-11-02T06:43:26.548Z,101385.50
2022-11-02T06:45:57.579Z,101383.22
2022-11-02T06:48:28.717Z,101396.06
2022-11-02T06:50:59.917Z,101406.50
2022-11-02T06:53:26.618Z,101419.38
2022-11-02T06:55:54.904Z,101417.75
2022-11-02T06:58:23.061Z,101423.34
2022-11-02T07:00:49.806Z,101428.97
2022-11-02T07:03:16.817Z,101427.59
2022-11-02T07:05:50.697Z,101436.84
2022-11-02T07:08:17.266Z,101440.97
2022-11-02T07:10:44.214Z,101446.81
2022-11-02T07:13:11.009Z,101449.91
2022-11-02T07:15:37.823Z,101452.00
2022-11-02T07:18:06.185Z,101460.19
2022-11-02T07:20:33.534Z,101465.63
2022-11-02T07:23:01.951Z,101479.19
2022-11-02T07:25:32.766Z,101469.03
2022-11-02T07:28:01.460Z,101471.22
2022-11-02T07:30:34.543Z,101470.00
2022-11-02T07:33:01.874Z,101476.78
2022-11-02T07:35:28.820Z,101473.03
2022-11-02T07:38:00.110Z,101476.31
2022-11-02T07:40:28.432Z,101475.56
2022-11-02T07:42:56.272Z,101477.19
2022-11-02T07:45:32.726Z,101482.91
2022-11-02T07:47:59.325Z,101479.97
2022-11-02T07:50:29.109Z,101483.53
2022-11-02T07:52:57.714Z,101494.16
2022-11-02T07:55:30.097Z,101498.56
2022-11-02T07:58:01.200Z,101494.63
2022-11-02T08:00:31.249Z,101497.41
2022-11-02T08:02:59.317Z,101502.06
2022-11-02T08:05:27.441Z,101515.00
2022-11-02T08:08:05.726Z,101512.41
2022-11-02T08:10:37.427Z,101524.31
2022-11-02T08:13:11.375Z,101520.63
2022-11-02T08:15:38.300Z,101514.00
2022-11-02T08:18:12.365Z,101514.66
2022-11-02T08:20:39.293Z,101520.13
2022-11-02T08:23:07.727Z,101522.31
2022-11-02T08:25:34.994Z,101524.28
2022-11-02T08:28:02.296Z,101529.66
2022-11-02T08:30:31.688Z,101524.56
2022-11-02T08:33:03.925Z,101530.59
2022-11-02T08:35:30.650Z,101530.69
2022-11-02T08:37:58.116Z,101525.38
2022-11-02T08:40:24.851Z,101527.91
2022-11-02T08:42:59.528Z,101529.34
2022-11-02T08:45:26.946Z,101522.41
2022-11-02T08:47:53.741Z,101527.59
2022-11-02T08:50:21.861Z,101526.84
2022-11-02T08:52:48.558Z,101535.25
2022-11-02T08:55:15.462Z,101522.06
2022-11-02T08:57:52.870Z,101523.75
2022-11-02T09:00:22.663Z,101524.31
2022-11-02T09:03:02.850Z,101535.38
2022-11-02T09:05:31.849Z,101536.97
2022-11-02T09:08:05.153Z,101532.03
2022-11-02T09:10:35.088Z,101540.22
2022-11-02T09:13:02.708Z,101535.13
2022-11-02T09:15:30.094Z,101532.41
2022-11-02T09:17:56.754Z,101537.13
2022-11-02T09:20:26.054Z,101532.31
2022-11-02T09:22:52.583Z,101531.06
2022-11-02T09:25:21.559Z,101528.94
2022-11-02T09:27:55.425Z,101532.75
2022-11-02T09:30:23.656Z,101534.19
2022-11-02T09:32:58.213Z,101540.19
2022-11-02T09:35:26.437Z,101533.22
2022-11-02T09:37:53.039Z,101526.78
2022-11-02T09:40:25.588Z,101541.31
2022-11-02T09:42:58.039Z,101534.34
2022-11-02T09:45:25.171Z,101528.69
2022-11-02T09:48:16.136Z,101531.97
2022-11-02T09:50:59.288Z,101533.91
2022-11-02T09:53:41.930Z,101533.44
2022-11-02T09:56:11.030Z,101538.31
2022-11-02T09:58:40.612Z,101531.63
2022-11-02T10:01:32.530Z,101531.44
2022-11-02T10:04:20.862Z,101531.72
2022-11-02T10:06:56.805Z,101528.88
2022-11-02T10:09:36.244Z,101528.94
2022-11-02T10:12:12.446Z,101537.63
2022-11-02T10:14:48.105Z,101528.47
2022-11-02T10:17:19.572Z,101529.53
2022-11-02T10:19:52.104Z,101529.81
2022-11-02T10:22:20.316Z,101524.16
2022-11-02T10:24:48.287Z,101527.13
2022-11-02T10:27:33.048Z,101528.00
2022-11-02T10:30:16.174Z,101520.09
2022-11-02T10:32:44.971Z,101521.28
2022-11-02T10:36:19.284Z,101520.50
2022-11-02T10:39:05.675Z,101532.97
2022-11-02T10:41:50.672Z,101514.53
2022-11-02T10:44:31.847Z,101533.78
2022-11-02T10:47:04.354Z,101525.16
2022-11-02T10:49:49.079Z,101530.38
2022-11-02T10:52:17.962Z,101529.66
2022-11-02T10:54:44.573Z,101524.66
2022-11-02T10:57:13.482Z,101528.09
2022-11-02T10:59:40.642Z,101517.72
2022-11-02T11:02:14.768Z,101514.22
2022-11-02T11:04:42.538Z,101504.09
2022-11-02T11:07:26.410Z,101507.81
2022-11-02T11:09:55.609Z,101498.38
2022-11-02T11:12:44.511Z,101497.81
2022-11-02T11:21:01.340Z,101485.47
2022-11-02T11:23:28.036Z,101477.97
2022-11-02T11:25:59.393Z,101483.53
2022-11-02T11:28:25.898Z,101477.72
2022-11-02T11:31:12.260Z,101474.22
2022-11-02T11:34:00.024Z,101465.13
2022-11-02T11:36:33.495Z,101461.22
2022-11-02T11:39:02.490Z,101456.34
2022-11-02T11:41:33.035Z,101448.25
2022-11-02T11:44:01.333Z,101448.63
2022-11-02T11:46:48.010Z,101456.25
2022-11-02T11:49:55.056Z,101470.56
2022-11-02T11:52:31.995Z,101464.09
2022-11-02T11:55:20.666Z,101459.31
2022-11-02T11:58:04.349Z,101450.72
2022-11-02T12:00:31.334Z,101457.19
2022-11-02T12:03:06.063Z,101453.16
2022-11-02T12:05:52.135Z,101449.56
2022-11-02T12:08:41.053Z,101444.25
2022-11-02T12:11:32.587Z,101438.84
2022-11-02T12:14:34.764Z,101439.34
2022-11-02T12:17:25.833Z,101438.59
2022-11-02T12:20:17.535Z,101437.44
2022-11-02T12:22:58.277Z,101434.28
2022-11-02T12:25:42.459Z,101435.03
2022-11-02T12:28:19.313Z,101436.84
2022-11-02T12:31:20.318Z,101432.81
2022-11-02T12:34:07.292Z,101436.03
2022-11-02T12:37:40.053Z,101427.47
2022-11-02T12:40:29.694Z,101446.97
2022-11-02T12:43:18.062Z,101449.91
2022-11-02T12:45:56.145Z,101441.84
2022-11-02T12:49:05.819Z,101443.88
2022-11-02T12:51:48.308Z,101439.16
2022-11-02T12:54:22.989Z,101428.59
2022-11-02T12:56:54.119Z,101439.66
2022-11-02T12:59:34.478Z,101428.16
2022-11-02T13:02:18.169Z,101441.41
2022-11-02T13:04:44.719Z,101431.63
2022-11-02T13:07:14.874Z,101432.91
2022-11-02T13:09:56.114Z,101433.28
2022-11-02T13:12:24.393Z,101433.03
2022-11-02T13:14:55.169Z,101435.06
2022-11-02T13:17:27.304Z,101431.94
2022-11-02T13:19:57.983Z,101422.31
2022-11-02T13:22:35.464Z,101418.22
2022-11-02T13:25:25.976Z,101424.09
2022-11-02T13:28:02.643Z,101416.81
2022-11-02T13:30:33.553Z,101421.44
2022-11-02T13:33:08.631Z,101426.91
2022-11-02T13:35:38.001Z,101416.25
2022-11-02T13:38:06.915Z,101420.63
2022-11-02T13:40:42.284Z,101411.44
2022-11-02T13:43:17.770Z,101415.91
2022-11-02T13:45:47.189Z,101419.53
2022-11-02T13:48:40.404Z,101416.34
2022-11-02T13:51:35.005Z,101408.00
2022-11-02T13:54:26.245Z,101406.72
2022-11-02T13:56:56.854Z,101405.47
2022-11-02T13:59:31.996Z,101412.50
2022-11-02T14:02:02.105Z,101410.66
2022-11-02T14:04:36.818Z,101407.22
2022-11-02T14:07:07.871Z,101409.16
2022-11-02T14:09:42.209Z,101416.03
2022-11-02T14:12:21.111Z,101411.66
2022-11-02T14:15:13.959Z,101415.38
2022-11-02T14:17:52.792Z,101406.41
2022-11-02T14:20:36.022Z,101407.03
2022-11-02T14:23:12.044Z,101395.41
2022-11-02T14:25:53.115Z,101398.16
2022-11-02T14:28:22.357Z,101393.63
2022-11-02T14:31:18.892Z,101396.06
2022-11-02T14:34:12.394Z,101395.88
2022-11-02T14:36:54.330Z,101400.81
2022-11-02T14:39:27.029Z,101403.31
2022-11-02T14:42:10.622Z,101401.09
2022-11-02T14:45:21.958Z,101399.56
2022-11-02T14:47:48.670Z,101395.56
2022-11-02T14:50:21.112Z,101396.69
2022-11-02T14:53:21.550Z,101378.53
2022-11-02T14:55:54.284Z,101379.94
2022-11-02T14:58:23.961Z,101377.00
2022-11-02T15:00:50.844Z,101384.88
2022-11-02T15:03:26.461Z,101381.34
2022-11-02T15:06:13.619Z,101384.91
2022-11-02T15:08:43.122Z,101383.28
2022-11-02T15:11:47.160Z,101389.50
2022-11-02T15:14:35.655Z,101376.00
2022-11-02T15:17:26.616Z,101379.84
2022-11-02T15:20:15.881Z,101376.59
2022-11-02T15:22:52.890Z,101375.75
2022-11-02T15:25:26.445Z,101380.34
2022-11-02T15:27:57.391Z,101373.91
2022-11-02T15:30:28.372Z,101376.59
2022-11-02T15:33:05.666Z,101370.91
2022-11-02T15:35:37.979Z,101371.19
2022-11-02T15:38:28.069Z,101377.69
2022-11-02T15:41:30.307Z,101370.13
2022-11-02T15:44:19.952Z,101362.03
2022-11-02T15:46:51.140Z,101366.09
2022-11-02T15:49:42.505Z,101372.31
2022-11-02T15:52:20.053Z,101365.00
2022-11-02T15:55:02.001Z,101374.72
2022-11-02T15:58:21.287Z,101362.31
2022-11-02T16:01:11.794Z,101364.72
2022-11-02T16:03:38.653Z,101365.81
2022-11-02T16:06:06.165Z,101357.09
2022-11-02T16:08:36.006Z,101357.09
2022-11-02T16:11:10.499Z,101363.56
2022-11-02T16:13:55.545Z,101375.97
2022-11-02T16:16:22.581Z,101368.94
2022-11-02T16:18:52.440Z,101365.97
2022-11-02T16:21:20.527Z,101359.19
2022-11-02T16:23:50.066Z,101359.72
2022-11-02T16:26:22.360Z,101353.25
2022-11-02T16:28:52.321Z,101358.66
2022-11-02T16:31:31.518Z,101348.66
2022-11-02T16:34:00.705Z,101362.38
2022-11-02T16:36:40.331Z,101365.88
2022-11-02T16:39:13.249Z,101361.00
2022-11-02T16:41:41.090Z,101355.31
2022-11-02T16:44:16.782Z,101355.31
2022-11-02T16:46:55.497Z,101353.69
2022-11-02T16:49:24.376Z,101355.88
2022-11-02T16:51:57.703Z,101354.22
2022-11-02T16:54:33.561Z,101351.53
2022-11-02T16:57:10.281Z,101353.13
2022-11-02T17:00:09.474Z,101348.22
2022-11-02T17:02:41.981Z,101342.00
2022-11-02T17:05:24.636Z,101341.19
2022-11-02T17:08:05.058Z,101343.34
2022-11-02T17:10:34.121Z,101344.69
2022-11-02T17:13:02.789Z,101334.13
2022-11-02T17:15:34.161Z,101339.00
2022-11-02T17:18:09.851Z,101327.63
2022-11-02T17:20:38.543Z,101332.47
2022-11-02T17:23:10.660Z,101327.31
2022-11-02T17:25:39.958Z,101327.00
2022-11-02T17:28:35.052Z,101329.38
2022-11-02T17:31:01.979Z,101323.19
2022-11-02T17:33:30.649Z,101338.28
2022-11-02T17:36:05.614Z,101331.53
2022-11-02T17:38:32.752Z,101335.03
2022-11-02T17:41:00.560Z,101333.41
2022-11-02T17:43:27.545Z,101332.31
2022-11-02T17:46:03.235Z,101333.41
2022-11-02T17:48:30.109Z,101332.00
2022-11-02T17:50:59.545Z,101327.41
2022-11-02T17:53:26.235Z,101335.25
2022-11-02T17:55:53.812Z,101338.19
2022-11-02T17:58:20.496Z,101343.31
2022-11-02T18:00:47.133Z,101345.16
2022-11-02T18:03:17.203Z,101332.16
2022-11-02T18:05:48.328Z,101335.34
2022-11-02T18:08:17.233Z,101327.22
2022-11-02T18:10:45.890Z,101329.06
2022-11-02T18:13:17.533Z,101333.03
2022-11-02T18:15:44.188Z,101330.00
2022-11-02T18:18:11.494Z,101328.66
2022-11-02T18:20:41.838Z,101328.16
2022-11-02T18:23:15.537Z,101324.38
2022-11-02T18:25:42.558Z,101325.94
2022-11-02T18:28:09.258Z,101322.59
2022-11-02T18:30:35.974Z,101322.28
2022-11-02T18:33:03.530Z,101311.16
2022-11-02T18:35:30.219Z,101330.22
2022-11-02T18:37:56.851Z,101328.19
2022-11-02T18:40:23.674Z,101323.78
2022-11-02T18:42:52.531Z,101313.81
2022-11-02T18:45:19.348Z,101307.63
2022-11-02T18:47:46.224Z,101308.22
2022-11-02T18:50:13.947Z,101310.50
2022-11-02T18:52:41.999Z,101301.94
2022-11-02T18:55:08.702Z,101310.00
2022-11-02T18:57:35.359Z,101311.38
2022-11-02T19:00:02.992Z,101312.13
2022-11-02T19:02:30.316Z,101301.88
2022-11-02T19:04:57.216Z,101307.00
2022-11-02T19:07:42.932Z,101306.66
2022-11-02T19:10:10.121Z,101302.84
2022-11-02T19:12:37.388Z,101302.34
2022-11-02T19:15:04.555Z,101304.56
2022-11-02T19:17:31.211Z,101293.84
2022-11-02T19:19:57.953Z,101291.09
2022-11-02T19:22:26.387Z,101287.81
2022-11-02T19:24:53.409Z,101295.69
2022-11-02T19:27:25.418Z,101296.47
2022-11-02T19:29:52.623Z,101299.44
2022-11-02T19:32:19.926Z,101294.22
2022-11-02T19:34:46.641Z,101287.22
2022-11-02T19:37:13.543Z,101292.03
2022-11-02T19:39:43.222Z,101289.88
2022-11-02T19:42:12.296Z,101284.56
2022-11-02T19:44:42.796Z,101285.41
2022-11-02T19:47:10.110Z,101285.88
2022-11-02T19:49:36.687Z,101272.41
2022-11-02T19:52:04.125Z,101279.00
2022-11-02T19:54:32.278Z,101267.91
2022-11-02T19:56:59.291Z,101270.84
2022-11-02T19:59:25.974Z,101261.66
2022-11-02T20:01:52.837Z,101255.22
2022-11-02T20:04:19.668Z,101264.66
2022-11-02T20:06:46.457Z,101262.31
2022-11-02T20:09:18.518Z,101263.44
2022-11-02T20:11:46.860Z,101260.97
2022-11-02T20:14:15.683Z,101263.75
2022-11-02T20:16:42.707Z,101268.81
2022-11-02T20:19:10.123Z,101266.38
2022-11-02T20:21:42.743Z,101258.75
2022-11-02T20:24:11.289Z,101256.53
2022-11-02T20:26:41.401Z,101259.94
2022-11-02T20:29:11.000Z,101260.78
2022-11-02T20:31:41.738Z,101258.09
2022-11-02T20:34:09.167Z,101250.50
2022-11-02T20:36:36.309Z,101247.25
2022-11-02T20:39:04.864Z,101251.63
2022-11-02T20:41:32.020Z,101245.25
2022-11-02T20:43:59.642Z,101253.63
2022-11-02T20:46:37.420Z,101249.63
2022-11-02T20:49:20.600Z,101242.13
2022-11-02T20:51:50.821Z,101245.38
2022-11-02T20:54:19.509Z,101241.34
2022-11-02T20:56:46.541Z,101240.78
2022-11-02T20:59:13.314Z,101235.41
2022-11-02T21:01:40.141Z,101227.59
2022-11-02T21:04:07.187Z,101238.34
2022-11-02T21:06:33.791Z,101237.75
2022-11-02T21:09:00.878Z,101231.75
2022-11-02T21:11:46.088Z,101227.25
2022-11-02T21:14:12.867Z,101221.44
2022-11-02T21:16:39.573Z,101223.00
2022-11-02T21:19:06.657Z,101225.38
2022-11-02T21:21:33.784Z,101223.19
2022-11-02T21:24:00.717Z,101221.81
2022-11-02T21:26:29.190Z,101224.06
2022-11-02T21:28:55.967Z,101221.75
2022-11-02T21:31:22.779Z,101213.16
2022-11-02T21:33:49.809Z,101209.34
2022-11-02T21:36:17.621Z,101205.53
2022-11-02T21:38:45.097Z,101206.66
2022-11-02T21:41:18.185Z,101207.31
2022-11-02T21:43:44.850Z,101207.06
2022-11-02T21:46:11.485Z,101206.78
2022-11-02T21:48:38.627Z,101209.47
2022-11-02T21:51:09.825Z,101196.03
2022-11-02T21:53:39.231Z,101204.94
2022-11-02T21:56:07.101Z,101212.44
2022-11-02T21:58:34.257Z,101210.00
2022-11-02T22:01:24.564Z,101216.13
2022-11-02T22:03:52.330Z,101205.81
2022-11-02T22:06:21.184Z,101210.88
2022-11-02T22:08:48.766Z,101203.03
2022-11-02T22:11:24.514Z,101197.66
2022-11-02T22:13:52.534Z,101196.88
2022-11-02T22:16:24.964Z,101202.81
2022-11-02T22:18:57.197Z,101198.81
2022-11-02T22:21:25.588Z,101195.81
2022-11-02T22:23:52.743Z,101195.75
2022-11-02T22:26:21.669Z,101185.50
2022-11-02T22:28:49.211Z,101185.50
2022-11-02T22:31:23.343Z,101180.13
2022-11-02T22:33:52.548Z,101178.50
2022-11-02T22:36:22.170Z,101181.41
2022-11-02T22:38:51.530Z,101172.00
2022-11-02T22:41:35.341Z,101168.75
2022-11-02T22:44:03.443Z,101163.88
2022-11-02T22:46:31.601Z,101166.47
2022-11-02T22:48:59.662Z,101159.94
2022-11-02T22:51:28.559Z,101159.50
2022-11-02T22:53:55.622Z,101156.28
2022-11-02T22:56:23.896Z,101146.91
2022-11-02T22:58:50.545Z,101149.88
2022-11-02T23:01:22.173Z,101143.94
2022-11-02T23:03:49.494Z,101137.41
2022-11-02T23:06:18.401Z,101135.53
2022-11-02T23:08:46.054Z,101136.38
2022-11-02T23:11:24.497Z,101143.38
2022-11-02T23:13:54.002Z,101146.06
2022-11-02T23:16:26.253Z,101144.91
2022-11-02T23:19:25.369Z,101143.25
2022-11-02T23:22:13.913Z,101148.25
2022-11-02T23:25:09.300Z,101144.19
2022-11-02T23:27:59.080Z,101129.88
2022-11-02T23:30:46.457Z,101140.25
2022-11-02T23:33:13.077Z,101137.84
2022-11-02T23:35:58.317Z,101132.88
2022-11-02T23:38:24.961Z,101134.34
2022-11-02T23:40:55.113Z,101134.53
2022-11-02T23:43:21.897Z,101140.06
2022-11-02T23:45:48.482Z,101145.91
2022-11-02T23:51:01.140Z,101138.94
2022-11-02T23:53:46.126Z,101129.81
2022-11-02T23:56:33.504Z,101131.44
2022-11-02T23:59:18.012Z,101129.81
